sensor_id;sensor_type;location;lat;lon;timestamp;temperature;humidity
5962;DHT22;3007;50.770;0.250;2022-11-15T00:02:10;11.10;99.90
5962;DHT22;3007;50.770;0.250;2022-11-15T00:04:38;11.10;99.90
5962;DHT22;3007;50.770;0.250;2022-11-15T00:07:05;11.10;99.90
5962;DHT22;3007;50.770;0.250;2022-11-15T00:09:32;11.10;99.90
5962;DHT22;3007;50.770;0.250;2022-11-15T00:11:59;11.10;99.90
5962;DHT22;3007;50.770;0.250;2022-11-15T00:14:26;11.00;99.90
5962;DHT22;3007;50.770;0.250;2022-11-15T00:16:53;10.90;99.90
5962;DHT22;3007;50.770;0.250;2022-11-15T00:19:19;10.90;99.90
5962;DHT22;3007;50.770;0.250;2022-11-15T00:21:48;10.80;99.90
5962;DHT22;3007;50.770;0.250;2022-11-15T00:24:15;10.90;99.90
5962;DHT22;3007;50.770;0.250;2022-11-15T00:26:42;10.90;99.90
5962;DHT22;3007;50.770;0.250;2022-11-15T00:29:08;11.00;99.90
5962;DHT22;3007;50.770;0.250;2022-11-15T00:31:35;11.00;99.90
5962;DHT22;3007;50.770;0.250;2022-11-15T00:34:02;11.00;99.90
5962;DHT22;3007;50.770;0.250;2022-11-15T00:36:32;11.10;99.90
5962;DHT22;3007;50.770;0.250;2022-11-15T00:39:02;11.10;99.90
5962;DHT22;3007;50.770;0.250;2022-11-15T00:41:29;11.10;99.90
5962;DHT22;3007;50.770;0.250;2022-11-15T00:43:56;11.10;99.90
5962;DHT22;3007;50.770;0.250;2022-11-15T00:46:23;11.10;99.90
5962;DHT22;3007;50.770;0.250;2022-11-15T00:48:50;11.20;99.90
5962;DHT22;3007;50.770;0.250;2022-11-15T00:51:19;11.30;99.90
5962;DHT22;3007;50.770;0.250;2022-11-15T00:53:46;11.40;99.90
5962;DHT22;3007;50.770;0.250;2022-11-15T00:56:14;11.50;99.90
5962;DHT22;3007;50.770;0.250;2022-11-15T00:58:41;11.50;99.90
5962;DHT22;3007;50.770;0.250;2022-11-15T01:01:09;11.50;99.90
5962;DHT22;3007;50.770;0.250;2022-11-15T01:03:38;11.50;99.90
5962;DHT22;3007;50.770;0.250;2022-11-15T01:06:06;11.50;99.90
5962;DHT22;3007;50.770;0.250;2022-11-15T01:08:33;11.50;99.90
5962;DHT22;3007;50.770;0.250;2022-11-15T01:11:04;11.40;99.90
5962;DHT22;3007;50.770;0.250;2022-11-15T01:13:34;11.40;99.90
5962;DHT22;3007;50.770;0.250;2022-11-15T01:16:06;11.40;99.90
5962;DHT22;3007;50.770;0.250;2022-11-15T01:18:33;11.40;99.90
5962;DHT22;3007;50.770;0.250;2022-11-15T01:21:05;11.50;99.90
5962;DHT22;3007;50.770;0.250;2022-11-15T01:23:31;11.50;99.90
5962;DHT22;3007;50.770;0.250;2022-11-15T01:25:59;11.50;99.90
5962;DHT22;3007;50.770;0.250;2022-11-15T01:28:30;11.50;99.90
5962;DHT22;3007;50.770;0.250;2022-11-15T01:30:59;11.50;99.90
5962;DHT22;3007;50.770;0.250;2022-11-15T01:33:26;11.40;99.90
5962;DHT22;3007;50.770;0.250;2022-11-15T01:35:53;11.40;99.90
5962;DHT22;3007;50.770;0.250;2022-11-15T01:38:20;11.40;99.90
5962;DHT22;3007;50.770;0.250;2022-11-15T01:40:46;11.40;99.90
5962;DHT22;3007;50.770;0.250;2022-11-15T01:43:21;11.40;99.90
5962;DHT22;3007;50.770;0.250;2022-11-15T01:45:51;11.50;99.90
5962;DHT22;3007;50.770;0.250;2022-11-15T01:48:21;11.60;99.90
5962;DHT22;3007;50.770;0.250;2022-11-15T01:50:48;11.60;99.90
5962;DHT22;3007;50.770;0.250;2022-11-15T01:53:17;11.70;99.90
5962;DHT22;3007;50.770;0.250;2022-11-15T01:55:45;11.70;99.90
5962;DHT22;3007;50.770;0.250;2022-11-15T01:58:12;11.70;99.90
5962;DHT22;3007;50.770;0.250;2022-11-15T02:00:39;11.70;99.90
5962;DHT22;3007;50.770;0.250;2022-11-15T02:03:06;11.80;99.90
5962;DHT22;3007;50.770;0.250;2022-11-15T02:05:36;11.80;99.90
5962;DHT22;3007;50.770;0.250;2022-11-15T02:08:03;11.80;99.90
5962;DHT22;3007;50.770;0.250;2022-11-15T02:10:31;11.90;99.90
5962;DHT22;3007;50.770;0.250;2022-11-15T02:12:59;12.00;99.90
5962;DHT22;3007;50.770;0.250;2022-11-15T02:15:33;12.00;99.90
5962;DHT22;3007;50.770;0.250;2022-11-15T02:18:10;12.10;99.90
5962;DHT22;3007;50.770;0.250;2022-11-15T02:21:04;12.20;99.90
5962;DHT22;3007;50.770;0.250;2022-11-15T02:29:50;12.20;99.90
5962;DHT22;3007;50.770;0.250;2022-11-15T02:32:31;12.20;99.90
5962;DHT22;3007;50.770;0.250;2022-11-15T02:35:05;12.20;99.90
5962;DHT22;3007;50.770;0.250;2022-11-15T02:37:42;12.10;99.90
5962;DHT22;3007;50.770;0.250;2022-11-15T02:40:16;12.10;99.90
5962;DHT22;3007;50.770;0.250;2022-11-15T02:42:53;12.10;99.90
5962;DHT22;3007;50.770;0.250;2022-11-15T02:45:42;12.10;99.90
5962;DHT22;3007;50.770;0.250;2022-11-15T02:48:12;12.20;99.90
5962;DHT22;3007;50.770;0.250;2022-11-15T02:50:40;12.10;99.90
5962;DHT22;3007;50.770;0.250;2022-11-15T02:53:07;12.20;99.90
5962;DHT22;3007;50.770;0.250;2022-11-15T02:55:36;12.20;99.90
5962;DHT22;3007;50.770;0.250;2022-11-15T02:58:19;12.20;99.90
5962;DHT22;3007;50.770;0.250;2022-11-15T03:00:58;12.20;99.90
5962;DHT22;3007;50.770;0.250;2022-11-15T03:03:41;12.20;99.90
5962;DHT22;3007;50.770;0.250;2022-11-15T03:06:18;12.20;99.90
5962;DHT22;3007;50.770;0.250;2022-11-15T03:08:53;12.30;99.90
5962;DHT22;3007;50.770;0.250;2022-11-15T03:11:22;12.30;99.90
5962;DHT22;3007;50.770;0.250;2022-11-15T03:13:56;12.40;99.90
5962;DHT22;3007;50.770;0.250;2022-11-15T03:16:27;12.40;99.90
5962;DHT22;3007;50.770;0.250;2022-11-15T03:18:59;12.40;99.90
5962;DHT22;3007;50.770;0.250;2022-11-15T03:21:28;12.40;99.90
5962;DHT22;3007;50.770;0.250;2022-11-15T03:23:58;12.50;99.90
5962;DHT22;3007;50.770;0.250;2022-11-15T03:26:28;12.50;99.90
5962;DHT22;3007;50.770;0.250;2022-11-15T03:28:58;12.50;99.90
5962;DHT22;3007;50.770;0.250;2022-11-15T03:31:32;12.60;99.90
5962;DHT22;3007;50.770;0.250;2022-11-15T03:34:22;12.60;99.90
5962;DHT22;3007;50.770;0.250;2022-11-15T03:36:50;12.60;99.90
5962;DHT22;3007;50.770;0.250;2022-11-15T03:39:18;12.60;99.90
5962;DHT22;3007;50.770;0.250;2022-11-15T03:41:49;12.60;99.90
5962;DHT22;3007;50.770;0.250;2022-11-15T03:44:25;12.70;99.90
5962;DHT22;3007;50.770;0.250;2022-11-15T03:47:00;12.60;99.90
5962;DHT22;3007;50.770;0.250;2022-11-15T03:49:33;12.60;99.90
5962;DHT22;3007;50.770;0.250;2022-11-15T03:52:02;12.60;99.90
5962;DHT22;3007;50.770;0.250;2022-11-15T03:54:29;12.60;99.90
5962;DHT22;3007;50.770;0.250;2022-11-15T03:56:56;12.60;99.90
5962;DHT22;3007;50.770;0.250;2022-11-15T03:59:23;12.60;99.90
5962;DHT22;3007;50.770;0.250;2022-11-15T04:01:50;12.60;99.90
5962;DHT22;3007;50.770;0.250;2022-11-15T04:04:17;12.60;99.90
5962;DHT22;3007;50.770;0.250;2022-11-15T04:06:45;12.50;99.90
5962;DHT22;3007;50.770;0.250;2022-11-15T04:09:12;12.50;99.90
5962;DHT22;3007;50.770;0.250;2022-11-15T04:11:39;12.40;99.90
5962;DHT22;3007;50.770;0.250;2022-11-15T04:14:06;12.40;99.90
5962;DHT22;3007;50.770;0.250;2022-11-15T04:16:33;12.30;99.90
5962;DHT22;3007;50.770;0.250;2022-11-15T04:18:59;12.30;99.90
5962;DHT22;3007;50.770;0.250;2022-11-15T04:21:45;12.30;99.90
5962;DHT22;3007;50.770;0.250;2022-11-15T04:24:30;12.30;99.90
5962;DHT22;3007;50.770;0.250;2022-11-15T04:26:57;12.20;99.90
5962;DHT22;3007;50.770;0.250;2022-11-15T04:29:23;12.20;99.90
5962;DHT22;3007;50.770;0.250;2022-11-15T04:32:03;12.20;99.90
5962;DHT22;3007;50.770;0.250;2022-11-15T04:34:30;12.30;99.90
5962;DHT22;3007;50.770;0.250;2022-11-15T04:36:59;12.20;99.90
5962;DHT22;3007;50.770;0.250;2022-11-15T04:39:37;12.30;99.90
5962;DHT22;3007;50.770;0.250;2022-11-15T04:42:04;12.30;99.90
5962;DHT22;3007;50.770;0.250;2022-11-15T04:44:30;12.30;99.90
5962;DHT22;3007;50.770;0.250;2022-11-15T04:46:57;12.30;99.90
5962;DHT22;3007;50.770;0.250;2022-11-15T04:49:24;12.30;99.90
5962;DHT22;3007;50.770;0.250;2022-11-15T04:51:51;12.30;99.90
5962;DHT22;3007;50.770;0.250;2022-11-15T04:54:20;12.30;99.90
5962;DHT22;3007;50.770;0.250;2022-11-15T04:56:46;12.30;99.90
5962;DHT22;3007;50.770;0.250;2022-11-15T04:59:13;12.30;99.90
5962;DHT22;3007;50.770;0.250;2022-11-15T05:01:40;12.30;99.90
5962;DHT22;3007;50.770;0.250;2022-11-15T05:04:07;12.30;99.90
5962;DHT22;3007;50.770;0.250;2022-11-15T05:06:47;12.30;99.90
5962;DHT22;3007;50.770;0.250;2022-11-15T05:09:14;12.30;99.90
5962;DHT22;3007;50.770;0.250;2022-11-15T05:11:42;12.30;99.90
5962;DHT22;3007;50.770;0.250;2022-11-15T05:14:10;12.30;99.90
5962;DHT22;3007;50.770;0.250;2022-11-15T05:16:37;12.40;99.90
5962;DHT22;3007;50.770;0.250;2022-11-15T05:19:04;12.40;99.90
5962;DHT22;3007;50.770;0.250;2022-11-15T05:21:31;12.40;99.90
5962;DHT22;3007;50.770;0.250;2022-11-15T05:23:59;12.40;99.90
5962;DHT22;3007;50.770;0.250;2022-11-15T05:26:26;12.40;99.90
5962;DHT22;3007;50.770;0.250;2022-11-15T05:28:55;12.40;99.90
5962;DHT22;3007;50.770;0.250;2022-11-15T05:31:22;12.40;99.90
5962;DHT22;3007;50.770;0.250;2022-11-15T05:33:50;12.40;99.90
5962;DHT22;3007;50.770;0.250;2022-11-15T05:36:21;12.40;99.90
5962;DHT22;3007;50.770;0.250;2022-11-15T05:38:51;12.40;99.90
5962;DHT22;3007;50.770;0.250;2022-11-15T05:41:22;12.40;99.90
5962;DHT22;3007;50.770;0.250;2022-11-15T05:43:51;12.40;99.90
5962;DHT22;3007;50.770;0.250;2022-11-15T05:46:20;12.40;99.90
5962;DHT22;3007;50.770;0.250;2022-11-15T05:48:49;12.40;99.90
5962;DHT22;3007;50.770;0.250;2022-11-15T05:51:17;12.40;99.90
5962;DHT22;3007;50.770;0.250;2022-11-15T05:53:46;12.40;99.90
5962;DHT22;3007;50.770;0.250;2022-11-15T05:56:14;12.40;99.90
5962;DHT22;3007;50.770;0.250;2022-11-15T05:58:41;12.40;99.90
5962;DHT22;3007;50.770;0.250;2022-11-15T06:01:08;12.40;99.90
5962;DHT22;3007;50.770;0.250;2022-11-15T06:03:37;12.40;99.90
5962;DHT22;3007;50.770;0.250;2022-11-15T06:06:04;12.50;99.90
5962;DHT22;3007;50.770;0.250;2022-11-15T06:08:31;12.50;99.90
5962;DHT22;3007;50.770;0.250;2022-11-15T06:11:03;12.50;99.90
5962;DHT22;3007;50.770;0.250;2022-11-15T06:13:30;12.50;99.90
5962;DHT22;3007;50.770;0.250;2022-11-15T06:15:57;12.50;99.90
5962;DHT22;3007;50.770;0.250;2022-11-15T06:18:24;12.50;99.90
5962;DHT22;3007;50.770;0.250;2022-11-15T06:20:52;12.50;99.90
5962;DHT22;3007;50.770;0.250;2022-11-15T06:23:19;12.50;99.90
5962;DHT22;3007;50.770;0.250;2022-11-15T06:25:46;12.50;99.90
5962;DHT22;3007;50.770;0.250;2022-11-15T06:28:12;12.60;99.90
5962;DHT22;3007;50.770;0.250;2022-11-15T06:30:39;12.50;99.90
5962;DHT22;3007;50.770;0.250;2022-11-15T06:33:06;12.50;99.90
5962;DHT22;3007;50.770;0.250;2022-11-15T06:35:35;12.60;99.90
5962;DHT22;3007;50.770;0.250;2022-11-15T06:38:04;12.50;99.90
5962;DHT22;3007;50.770;0.250;2022-11-15T06:40:33;12.60;99.90
5962;DHT22;3007;50.770;0.250;2022-11-15T06:43:01;12.60;99.90
5962;DHT22;3007;50.770;0.250;2022-11-15T06:45:28;12.60;99.90
5962;DHT22;3007;50.770;0.250;2022-11-15T06:47:55;12.50;99.90
5962;DHT22;3007;50.770;0.250;2022-11-15T06:50:22;12.50;99.90
5962;DHT22;3007;50.770;0.250;2022-11-15T06:52:48;12.60;99.90
5962;DHT22;3007;50.770;0.250;2022-11-15T06:55:17;12.60;99.90
5962;DHT22;3007;50.770;0.250;2022-11-15T06:57:47;12.60;99.90
5962;DHT22;3007;50.770;0.250;2022-11-15T07:00:15;12.60;99.90
5962;DHT22;3007;50.770;0.250;2022-11-15T07:02:43;12.60;99.90
5962;DHT22;3007;50.770;0.250;2022-11-15T07:05:10;12.60;99.90
5962;DHT22;3007;50.770;0.250;2022-11-15T07:07:36;12.60;99.90
5962;DHT22;3007;50.770;0.250;2022-11-15T07:10:04;12.60;99.90
5962;DHT22;3007;50.770;0.250;2022-11-15T07:12:33;12.60;99.90
5962;DHT22;3007;50.770;0.250;2022-11-15T07:15:00;12.60;99.90
5962;DHT22;3007;50.770;0.250;2022-11-15T07:17:27;12.60;99.90
5962;DHT22;3007;50.770;0.250;2022-11-15T07:19:54;12.60;99.90
5962;DHT22;3007;50.770;0.250;2022-11-15T07:22:21;12.60;99.90
5962;DHT22;3007;50.770;0.250;2022-11-15T07:24:48;12.60;99.90
5962;DHT22;3007;50.770;0.250;2022-11-15T07:27:15;12.70;99.90
5962;DHT22;3007;50.770;0.250;2022-11-15T07:29:43;12.70;99.90
5962;DHT22;3007;50.770;0.250;2022-11-15T07:32:10;12.70;99.90
5962;DHT22;3007;50.770;0.250;2022-11-15T07:34:37;12.70;99.90
5962;DHT22;3007;50.770;0.250;2022-11-15T07:37:03;12.60;99.90
5962;DHT22;3007;50.770;0.250;2022-11-15T07:39:30;12.60;99.90
5962;DHT22;3007;50.770;0.250;2022-11-15T07:41:57;12.50;99.90
5962;DHT22;3007;50.770;0.250;2022-11-15T07:44:38;12.60;99.90
5962;DHT22;3007;50.770;0.250;2022-11-15T07:47:06;12.60;99.90
5962;DHT22;3007;50.770;0.250;2022-11-15T07:49:33;12.60;99.90
5962;DHT22;3007;50.770;0.250;2022-11-15T07:52:00;12.60;99.90
5962;DHT22;3007;50.770;0.250;2022-11-15T07:54:26;12.60;99.90
5962;DHT22;3007;50.770;0.250;2022-11-15T07:56:53;12.60;99.90
5962;DHT22;3007;50.770;0.250;2022-11-15T07:59:20;12.50;99.90
5962;DHT22;3007;50.770;0.250;2022-11-15T08:01:47;12.50;99.90
5962;DHT22;3007;50.770;0.250;2022-11-15T08:04:15;12.50;99.90
5962;DHT22;3007;50.770;0.250;2022-11-15T08:06:42;12.50;99.90
5962;DHT22;3007;50.770;0.250;2022-11-15T08:09:09;12.50;99.90
5962;DHT22;3007;50.770;0.250;2022-11-15T08:11:36;12.50;99.90
5962;DHT22;3007;50.770;0.250;2022-11-15T08:14:03;12.50;99.90
5962;DHT22;3007;50.770;0.250;2022-11-15T08:16:30;12.40;99.90
5962;DHT22;3007;50.770;0.250;2022-11-15T08:18:57;12.40;99.90
5962;DHT22;3007;50.770;0.250;2022-11-15T08:21:25;12.40;99.90
5962;DHT22;3007;50.770;0.250;2022-11-15T08:23:52;12.40;99.90
5962;DHT22;3007;50.770;0.250;2022-11-15T08:26:19;12.40;99.90
5962;DHT22;3007;50.770;0.250;2022-11-15T08:28:46;12.40;99.90
5962;DHT22;3007;50.770;0.250;2022-11-15T08:31:14;12.40;99.90
5962;DHT22;3007;50.770;0.250;2022-11-15T08:33:43;12.40;99.90
5962;DHT22;3007;50.770;0.250;2022-11-15T08:36:13;12.40;99.90
5962;DHT22;3007;50.770;0.250;2022-11-15T08:38:42;12.40;99.90
5962;DHT22;3007;50.770;0.250;2022-11-15T08:41:12;12.40;99.90
5962;DHT22;3007;50.770;0.250;2022-11-15T08:43:40;12.40;99.90
5962;DHT22;3007;50.770;0.250;2022-11-15T08:46:09;12.40;99.90
5962;DHT22;3007;50.770;0.250;2022-11-15T08:48:38;12.40;99.90
5962;DHT22;3007;50.770;0.250;2022-11-15T08:51:05;12.40;99.90
5962;DHT22;3007;50.770;0.250;2022-11-15T08:53:33;12.40;99.90
5962;DHT22;3007;50.770;0.250;2022-11-15T08:56:01;12.40;99.90
5962;DHT22;3007;50.770;0.250;2022-11-15T08:58:28;12.30;99.90
5962;DHT22;3007;50.770;0.250;2022-11-15T09:00:55;12.30;99.90
5962;DHT22;3007;50.770;0.250;2022-11-15T09:03:22;12.30;99.90
5962;DHT22;3007;50.770;0.250;2022-11-15T09:05:54;12.40;99.90
5962;DHT22;3007;50.770;0.250;2022-11-15T09:08:21;12.40;99.90
5962;DHT22;3007;50.770;0.250;2022-11-15T09:10:48;12.40;99.90
5962;DHT22;3007;50.770;0.250;2022-11-15T09:13:16;12.40;99.90
5962;DHT22;3007;50.770;0.250;2022-11-15T09:15:43;12.40;99.90
5962;DHT22;3007;50.770;0.250;2022-11-15T09:18:10;12.40;99.90
5962;DHT22;3007;50.770;0.250;2022-11-15T09:20:37;12.40;99.90
5962;DHT22;3007;50.770;0.250;2022-11-15T09:23:04;12.50;99.90
5962;DHT22;3007;50.770;0.250;2022-11-15T09:25:32;12.50;99.90
5962;DHT22;3007;50.770;0.250;2022-11-15T09:27:59;12.50;99.90
5962;DHT22;3007;50.770;0.250;2022-11-15T09:30:27;12.50;99.90
5962;DHT22;3007;50.770;0.250;2022-11-15T09:32:54;12.40;99.90
5962;DHT22;3007;50.770;0.250;2022-11-15T09:35:21;12.40;99.90
5962;DHT22;3007;50.770;0.250;2022-11-15T09:37:48;12.40;99.90
5962;DHT22;3007;50.770;0.250;2022-11-15T09:40:16;12.40;99.90
5962;DHT22;3007;50.770;0.250;2022-11-15T09:42:57;12.40;99.90
5962;DHT22;3007;50.770;0.250;2022-11-15T09:45:34;12.40;99.90
5962;DHT22;3007;50.770;0.250;2022-11-15T09:48:18;12.40;99.90
5962;DHT22;3007;50.770;0.250;2022-11-15T09:50:50;12.40;99.90
5962;DHT22;3007;50.770;0.250;2022-11-15T09:53:24;12.40;99.90
5962;DHT22;3007;50.770;0.250;2022-11-15T09:56:02;12.40;99.90
5962;DHT22;3007;50.770;0.250;2022-11-15T09:58:42;12.40;99.90
5962;DHT22;3007;50.770;0.250;2022-11-15T10:01:18;12.40;99.90
5962;DHT22;3007;50.770;0.250;2022-11-15T10:03:46;12.40;99.90
5962;DHT22;3007;50.770;0.250;2022-11-15T10:06:18;12.40;99.90
5962;DHT22;3007;50.770;0.250;2022-11-15T10:08:53;12.40;99.90
5962;DHT22;3007;50.770;0.250;2022-11-15T10:11:23;12.40;99.90
5962;DHT22;3007;50.770;0.250;2022-11-15T10:13:53;12.40;99.90
5962;DHT22;3007;50.770;0.250;2022-11-15T10:16:49;12.40;99.90
5962;DHT22;3007;50.770;0.250;2022-11-15T10:19:26;12.40;99.90
5962;DHT22;3007;50.770;0.250;2022-11-15T10:22:04;12.40;99.90
5962;DHT22;3007;50.770;0.250;2022-11-15T10:24:35;12.40;99.90
5962;DHT22;3007;50.770;0.250;2022-11-15T10:27:09;12.40;99.90
5962;DHT22;3007;50.770;0.250;2022-11-15T10:29:43;12.40;99.90
5962;DHT22;3007;50.770;0.250;2022-11-15T10:32:12;12.50;99.90
5962;DHT22;3007;50.770;0.250;2022-11-15T10:34:39;12.50;99.90
5962;DHT22;3007;50.770;0.250;2022-11-15T10:37:06;12.50;99.90
5962;DHT22;3007;50.770;0.250;2022-11-15T10:39:33;12.50;99.90
5962;DHT22;3007;50.770;0.250;2022-11-15T10:42:16;12.50;99.90
5962;DHT22;3007;50.770;0.250;2022-11-15T10:44:44;12.50;99.90
5962;DHT22;3007;50.770;0.250;2022-11-15T10:47:30;12.50;99.90
5962;DHT22;3007;50.770;0.250;2022-11-15T10:49:59;12.60;99.90
5962;DHT22;3007;50.770;0.250;2022-11-15T10:52:28;12.60;99.90
5962;DHT22;3007;50.770;0.250;2022-11-15T10:54:58;12.60;99.90
5962;DHT22;3007;50.770;0.250;2022-11-15T10:57:28;12.60;99.90
5962;DHT22;3007;50.770;0.250;2022-11-15T10:59:59;12.60;99.90
5962;DHT22;3007;50.770;0.250;2022-11-15T11:02:35;12.60;99.90
5962;DHT22;3007;50.770;0.250;2022-11-15T11:05:05;12.60;99.90
5962;DHT22;3007;50.770;0.250;2022-11-15T11:07:34;12.60;99.90
5962;DHT22;3007;50.770;0.250;2022-11-15T11:10:03;12.50;99.90
5962;DHT22;3007;50.770;0.250;2022-11-15T11:12:32;12.60;99.90
5962;DHT22;3007;50.770;0.250;2022-11-15T11:15:02;12.60;99.90
5962;DHT22;3007;50.770;0.250;2022-11-15T11:17:51;12.60;99.90
5962;DHT22;3007;50.770;0.250;2022-11-15T11:20:26;12.60;99.90
5962;DHT22;3007;50.770;0.250;2022-11-15T11:23:03;12.70;99.90
5962;DHT22;3007;50.770;0.250;2022-11-15T11:25:35;12.70;99.90
5962;DHT22;3007;50.770;0.250;2022-11-15T11:28:14;12.70;99.90
5962;DHT22;3007;50.770;0.250;2022-11-15T11:30:55;12.70;99.90
5962;DHT22;3007;50.770;0.250;2022-11-15T11:33:37;12.70;99.90
5962;DHT22;3007;50.770;0.250;2022-11-15T11:36:20;12.70;99.90
5962;DHT22;3007;50.770;0.250;2022-11-15T11:38:57;12.80;99.90
5962;DHT22;3007;50.770;0.250;2022-11-15T11:41:39;12.80;99.90
5962;DHT22;3007;50.770;0.250;2022-11-15T11:44:27;12.80;99.90
5962;DHT22;3007;50.770;0.250;2022-11-15T11:46:58;12.80;99.90
5962;DHT22;3007;50.770;0.250;2022-11-15T11:49:33;12.90;99.90
5962;DHT22;3007;50.770;0.250;2022-11-15T11:52:08;12.90;99.90
5962;DHT22;3007;50.770;0.250;2022-11-15T11:54:48;12.90;99.90
5962;DHT22;3007;50.770;0.250;2022-11-15T11:57:28;12.90;99.90
5962;DHT22;3007;50.770;0.250;2022-11-15T12:00:00;12.90;99.90
5962;DHT22;3007;50.770;0.250;2022-11-15T12:02:31;12.90;99.90
5962;DHT22;3007;50.770;0.250;2022-11-15T12:05:08;13.00;99.90
5962;DHT22;3007;50.770;0.250;2022-11-15T12:07:39;13.00;99.90
5962;DHT22;3007;50.770;0.250;2022-11-15T12:10:15;13.00;99.90
5962;DHT22;3007;50.770;0.250;2022-11-15T12:12:50;13.00;99.90
5962;DHT22;3007;50.770;0.250;2022-11-15T12:15:21;13.00;99.90
5962;DHT22;3007;50.770;0.250;2022-11-15T12:17:48;13.00;99.90
5962;DHT22;3007;50.770;0.250;2022-11-15T12:20:19;13.00;99.90
5962;DHT22;3007;50.770;0.250;2022-11-15T12:22:51;13.00;99.90
5962;DHT22;3007;50.770;0.250;2022-11-15T12:25:22;13.00;99.90
5962;DHT22;3007;50.770;0.250;2022-11-15T12:27:54;13.00;99.90
5962;DHT22;3007;50.770;0.250;2022-11-15T12:30:24;13.00;99.90
5962;DHT22;3007;50.770;0.250;2022-11-15T12:32:54;13.10;99.90
5962;DHT22;3007;50.770;0.250;2022-11-15T12:35:30;13.10;99.90
5962;DHT22;3007;50.770;0.250;2022-11-15T12:37:59;13.10;99.90
5962;DHT22;3007;50.770;0.250;2022-11-15T12:40:34;13.20;99.90
5962;DHT22;3007;50.770;0.250;2022-11-15T12:45:53;13.20;99.90
5962;DHT22;3007;50.770;0.250;2022-11-15T12:54:58;13.30;99.90
5962;DHT22;3007;50.770;0.250;2022-11-15T12:57:35;13.40;99.90
5962;DHT22;3007;50.770;0.250;2022-11-15T13:02:47;13.50;99.90
5962;DHT22;3007;50.770;0.250;2022-11-15T13:08:43;13.60;99.90
5962;DHT22;3007;50.770;0.250;2022-11-15T13:11:51;13.60;99.90
5962;DHT22;3007;50.770;0.250;2022-11-15T13:14:47;13.60;99.90
5962;DHT22;3007;50.770;0.250;2022-11-15T13:17:39;13.60;99.90
5962;DHT22;3007;50.770;0.250;2022-11-15T13:20:19;13.60;99.90
5962;DHT22;3007;50.770;0.250;2022-11-15T13:22:49;13.60;99.90
5962;DHT22;3007;50.770;0.250;2022-11-15T13:25:47;13.60;99.90
5962;DHT22;3007;50.770;0.250;2022-11-15T13:28:22;13.70;99.90
5962;DHT22;3007;50.770;0.250;2022-11-15T13:30:51;13.70;99.90
5962;DHT22;3007;50.770;0.250;2022-11-15T13:33:20;13.70;99.90
5962;DHT22;3007;50.770;0.250;2022-11-15T13:35:49;13.70;99.90
5962;DHT22;3007;50.770;0.250;2022-11-15T13:38:24;13.80;99.90
5962;DHT22;3007;50.770;0.250;2022-11-15T13:40:53;13.80;99.90
5962;DHT22;3007;50.770;0.250;2022-11-15T13:43:27;13.90;99.90
5962;DHT22;3007;50.770;0.250;2022-11-15T13:46:11;13.90;99.90
5962;DHT22;3007;50.770;0.250;2022-11-15T13:48:40;13.90;99.90
5962;DHT22;3007;50.770;0.250;2022-11-15T13:51:16;13.90;99.90
5962;DHT22;3007;50.770;0.250;2022-11-15T13:53:47;13.90;99.90
5962;DHT22;3007;50.770;0.250;2022-11-15T13:56:17;13.80;99.90
5962;DHT22;3007;50.770;0.250;2022-11-15T13:58:48;13.80;99.90
5962;DHT22;3007;50.770;0.250;2022-11-15T14:01:17;13.90;99.90
5962;DHT22;3007;50.770;0.250;2022-11-15T14:03:57;13.90;99.90
5962;DHT22;3007;50.770;0.250;2022-11-15T14:06:25;13.90;99.90
5962;DHT22;3007;50.770;0.250;2022-11-15T14:11:50;14.10;99.90
5962;DHT22;3007;50.770;0.250;2022-11-15T14:14:20;14.10;99.90
5962;DHT22;3007;50.770;0.250;2022-11-15T14:16:49;14.20;99.90
5962;DHT22;3007;50.770;0.250;2022-11-15T14:19:38;14.10;99.90
5962;DHT22;3007;50.770;0.250;2022-11-15T14:22:13;14.10;99.90
5962;DHT22;3007;50.770;0.250;2022-11-15T14:24:42;14.20;99.90
5962;DHT22;3007;50.770;0.250;2022-11-15T14:27:20;14.20;99.90
5962;DHT22;3007;50.770;0.250;2022-11-15T14:29:49;14.20;99.90
5962;DHT22;3007;50.770;0.250;2022-11-15T14:32:18;14.20;99.90
5962;DHT22;3007;50.770;0.250;2022-11-15T14:34:46;14.10;99.90
5962;DHT22;3007;50.770;0.250;2022-11-15T14:37:20;14.10;99.90
5962;DHT22;3007;50.770;0.250;2022-11-15T14:39:48;14.00;99.90
5962;DHT22;3007;50.770;0.250;2022-11-15T14:42:15;13.90;99.90
5962;DHT22;3007;50.770;0.250;2022-11-15T14:44:42;13.90;99.90
5962;DHT22;3007;50.770;0.250;2022-11-15T14:47:10;14.00;99.90
5962;DHT22;3007;50.770;0.250;2022-11-15T14:49:37;13.90;99.90
5962;DHT22;3007;50.770;0.250;2022-11-15T14:52:16;13.90;99.90
5962;DHT22;3007;50.770;0.250;2022-11-15T14:54:45;13.80;99.90
5962;DHT22;3007;50.770;0.250;2022-11-15T14:57:12;13.60;99.90
5962;DHT22;3007;50.770;0.250;2022-11-15T14:59:39;13.60;99.90
5962;DHT22;3007;50.770;0.250;2022-11-15T15:02:16;13.60;99.90
5962;DHT22;3007;50.770;0.250;2022-11-15T15:04:43;13.60;99.90
5962;DHT22;3007;50.770;0.250;2022-11-15T15:07:10;13.50;99.90
5962;DHT22;3007;50.770;0.250;2022-11-15T15:09:37;13.50;99.90
5962;DHT22;3007;50.770;0.250;2022-11-15T15:12:04;13.40;99.90
5962;DHT22;3007;50.770;0.250;2022-11-15T15:14:32;13.40;99.90
5962;DHT22;3007;50.770;0.250;2022-11-15T15:16:59;13.40;99.90
5962;DHT22;3007;50.770;0.250;2022-11-15T15:19:27;13.30;99.90
5962;DHT22;3007;50.770;0.250;2022-11-15T15:21:54;13.30;99.90
5962;DHT22;3007;50.770;0.250;2022-11-15T15:24:21;13.20;99.90
5962;DHT22;3007;50.770;0.250;2022-11-15T15:26:47;13.20;99.90
5962;DHT22;3007;50.770;0.250;2022-11-15T15:29:15;13.20;99.90
5962;DHT22;3007;50.770;0.250;2022-11-15T15:31:42;13.20;99.90
5962;DHT22;3007;50.770;0.250;2022-11-15T15:34:08;13.10;99.90
5962;DHT22;3007;50.770;0.250;2022-11-15T15:36:37;13.00;99.90
5962;DHT22;3007;50.770;0.250;2022-11-15T15:39:03;13.00;99.90
5962;DHT22;3007;50.770;0.250;2022-11-15T15:41:30;13.00;99.90
5962;DHT22;3007;50.770;0.250;2022-11-15T15:43:57;13.00;99.90
5962;DHT22;3007;50.770;0.250;2022-11-15T15:46:24;12.90;99.90
5962;DHT22;3007;50.770;0.250;2022-11-15T15:48:51;12.80;99.90
5962;DHT22;3007;50.770;0.250;2022-11-15T15:51:18;12.80;99.90
5962;DHT22;3007;50.770;0.250;2022-11-15T15:53:47;12.70;99.90
5962;DHT22;3007;50.770;0.250;2022-11-15T15:56:14;12.70;99.90
5962;DHT22;3007;50.770;0.250;2022-11-15T15:58:40;12.70;99.90
5962;DHT22;3007;50.770;0.250;2022-11-15T16:01:07;12.70;99.90
5962;DHT22;3007;50.770;0.250;2022-11-15T16:03:34;12.70;99.90
5962;DHT22;3007;50.770;0.250;2022-11-15T16:06:01;12.70;99.90
5962;DHT22;3007;50.770;0.250;2022-11-15T16:08:29;12.60;99.90
5962;DHT22;3007;50.770;0.250;2022-11-15T16:10:57;12.60;99.90
5962;DHT22;3007;50.770;0.250;2022-11-15T16:13:24;12.50;99.90
5962;DHT22;3007;50.770;0.250;2022-11-15T16:15:52;12.50;99.90
5962;DHT22;3007;50.770;0.250;2022-11-15T16:18:21;12.50;99.90
5962;DHT22;3007;50.770;0.250;2022-11-15T16:20:48;12.50;99.90
5962;DHT22;3007;50.770;0.250;2022-11-15T16:23:18;12.40;99.90
5962;DHT22;3007;50.770;0.250;2022-11-15T16:25:50;12.50;99.90
5962;DHT22;3007;50.770;0.250;2022-11-15T16:28:21;12.40;99.90
5962;DHT22;3007;50.770;0.250;2022-11-15T16:30:49;12.40;99.90
5962;DHT22;3007;50.770;0.250;2022-11-15T16:33:16;12.40;99.90
5962;DHT22;3007;50.770;0.250;2022-11-15T16:35:45;12.30;99.90
5962;DHT22;3007;50.770;0.250;2022-11-15T16:38:17;12.30;99.90
5962;DHT22;3007;50.770;0.250;2022-11-15T16:40:44;12.20;99.90
5962;DHT22;3007;50.770;0.250;2022-11-15T16:43:11;12.20;99.90
5962;DHT22;3007;50.770;0.250;2022-11-15T16:45:40;12.10;99.90
5962;DHT22;3007;50.770;0.250;2022-11-15T16:48:08;12.10;99.90